Terminal Aerodrome Forecast
Issued by NWS Buffalo, NY

Home | Current Version | Previous Version | Text Only | Print | Product List | Glossary On
Versions: 1 2 3 4 5 6 7 8 9 10 11 12 13 14 15 16 17 18 19 20 21 22 23 24 25 26
000
FTUS41 KBUF 042024 AAA
TAFROC
TAF AMD
KROC 042024Z 0420/0518 04010KT P6SM BKN080
     FM050200 VRB03KT P6SM SCT035 BKN200
     FM050700 08004KT P6SM SCT015 BKN100
     FM051300 07008KT P6SM SCT035 OVC060
     FM051600 05012KT P6SM SCT060 OVC070=

USA.gov is the U.S. government's official web portal to all federal, state and local government web resources and services.